Time;durP1;ratioP1;P1;durP2;ratioP2;P2;SDS_P1;SDS_P2;PMS_P1;PMS_P2;Temp;Humidity;BMP_temperature;BMP_pressure;BME280_temperature;BME280_humidity;BME280_pressure;Samples;Min_cycle;Max_cycle;Signal;HPM_P1;HPM_P2
2023/06/30 00:00:25;;;;;;;12.30;11.20;;;18.70;99.90;;;;;;5098752;28;20630;-75
2023/06/30 00:02:51;;;;;;;10.77;9.67;;;18.60;99.90;;;;;;5106725;28;20442;-74
2023/06/30 00:05:18;;;;;;;10.77;9.23;;;18.60;99.90;;;;;;5119208;28;20451;-74
2023/06/30 00:07:44;;;;;;;8.70;7.80;;;18.50;99.90;;;;;;5118377;28;20471;-74
2023/06/30 00:10:10;;;;;;;8.07;7.27;;;18.40;99.90;;;;;;5099460;28;20444;-74
2023/06/30 00:12:35;;;;;;;8.90;8.00;;;18.20;99.90;;;;;;5109276;28;20407;-75
2023/06/30 00:15:02;;;;;;;9.40;8.50;;;18.10;99.90;;;;;;5091748;28;20425;-74
2023/06/30 00:17:27;;;;;;;8.23;7.47;;;18.00;99.90;;;;;;5102503;28;20201;-74
2023/06/30 00:19:53;;;;;;;9.07;7.77;;;17.80;99.90;;;;;;5118176;28;20712;-74
2023/06/30 00:22:22;;;;;;;7.47;6.73;;;17.70;99.90;;;;;;5098289;28;20421;-76
2023/06/30 00:24:54;;;;;;;7.60;6.90;;;17.50;99.90;;;;;;5099484;28;20200;-74
2023/06/30 00:27:20;;;;;;;6.20;5.23;;;17.40;99.90;;;;;;5118643;28;20926;-74
2023/06/30 00:29:46;;;;;;;6.63;5.93;;;17.30;99.90;;;;;;5101190;28;20470;-74
2023/06/30 00:32:11;;;;;;;5.40;4.90;;;17.20;99.90;;;;;;5097699;28;20849;-74
2023/06/30 00:34:37;;;;;;;3.80;3.30;;;17.10;99.90;;;;;;5100805;28;20419;-74
2023/06/30 00:37:03;;;;;;;3.23;2.83;;;16.90;99.90;;;;;;5118194;28;20540;-72
2023/06/30 00:39:28;;;;;;;4.00;3.50;;;16.80;99.90;;;;;;5101133;28;20223;-74
2023/06/30 00:41:54;;;;;;;3.50;3.20;;;16.70;99.90;;;;;;5097214;28;20178;-73
2023/06/30 00:44:20;;;;;;;3.60;3.30;;;16.60;99.90;;;;;;5105972;28;20267;-73
2023/06/30 00:46:45;;;;;;;3.43;2.90;;;16.40;99.90;;;;;;5098024;28;20277;-73
2023/06/30 00:49:11;;;;;;;3.67;2.47;;;16.30;99.90;;;;;;5099661;28;20279;-75
2023/06/30 00:51:39;;;;;;;4.50;3.10;;;16.20;99.90;;;;;;5097764;28;20250;-73
2023/06/30 00:54:05;;;;;;;2.97;2.60;;;16.20;99.90;;;;;;5081868;28;20414;-73
2023/06/30 00:56:31;;;;;;;4.30;3.40;;;16.20;99.90;;;;;;5091443;28;20414;-73
2023/06/30 00:58:57;;;;;;;3.20;2.90;;;16.10;99.90;;;;;;5079132;28;20203;-73
2023/06/30 01:01:36;;;;;;;5.17;4.00;;;16.10;99.90;;;;;;5082912;28;20205;-72
2023/06/30 01:04:19;;;;;;;5.50;4.17;;;16.10;99.90;;;;;;5096814;28;20461;-74
2023/06/30 01:06:58;;;;;;;5.67;4.50;;;16.00;99.90;;;;;;5097256;28;20510;-73
2023/06/30 01:09:27;;;;;;;5.30;4.80;;;16.00;99.90;;;;;;5092257;28;20730;-73
2023/06/30 01:11:54;;;;;;;5.50;4.80;;;16.00;99.90;;;;;;5117408;28;20414;-72
2023/06/30 01:14:22;;;;;;;7.50;5.70;;;16.00;99.90;;;;;;5097747;28;20433;-72
2023/06/30 01:16:50;;;;;;;6.37;5.57;;;15.90;99.90;;;;;;5076552;28;20493;-73
2023/06/30 01:19:35;;;;;;;6.83;5.90;;;16.00;99.90;;;;;;5076647;28;20443;-72
2023/06/30 01:22:24;;;;;;;7.43;5.77;;;15.90;99.90;;;;;;5098079;28;20410;-72
2023/06/30 01:24:56;;;;;;;7.30;6.53;;;15.90;99.90;;;;;;5078805;28;20495;-72
2023/06/30 01:27:22;;;;;;;8.83;7.90;;;15.90;99.90;;;;;;5078450;28;20476;-72
2023/06/30 01:29:49;;;;;;;9.43;7.70;;;15.80;99.90;;;;;;5106688;28;20449;-72
2023/06/30 01:32:16;;;;;;;12.93;9.70;;;15.80;99.90;;;;;;5076576;28;20475;-73
2023/06/30 01:34:47;;;;;;;14.43;10.27;;;15.70;99.90;;;;;;5066750;28;20444;-71
2023/06/30 01:37:13;;;;;;;13.90;9.70;;;15.70;99.90;;;;;;5103970;28;20745;-73
2023/06/30 01:39:40;;;;;;;13.50;9.87;;;15.70;99.90;;;;;;5096414;28;20407;-72
2023/06/30 01:42:07;;;;;;;15.53;10.30;;;15.70;99.90;;;;;;5108071;28;20413;-73
2023/06/30 01:44:35;;;;;;;17.03;11.37;;;15.70;99.90;;;;;;5115099;28;20414;-72
2023/06/30 01:47:01;;;;;;;13.87;10.73;;;15.70;99.90;;;;;;5077048;28;20423;-74
2023/06/30 01:49:28;;;;;;;15.03;10.70;;;15.60;99.90;;;;;;5089565;28;20426;-72
2023/06/30 01:51:53;;;;;;;13.43;10.10;;;15.50;99.90;;;;;;5094644;28;20445;-73
2023/06/30 01:54:19;;;;;;;15.53;10.30;;;15.30;99.90;;;;;;5099814;28;20421;-73
2023/06/30 01:56:49;;;;;;;12.40;9.40;;;15.20;99.90;;;;;;5098604;28;20288;-72
2023/06/30 01:59:15;;;;;;;14.40;8.40;;;15.10;99.90;;;;;;5092748;28;20224;-73
2023/06/30 02:01:40;;;;;;;12.63;8.03;;;15.10;99.90;;;;;;5057533;28;20966;-73
2023/06/30 02:04:06;;;;;;;11.57;8.20;;;15.00;99.90;;;;;;5058011;28;20467;-72
2023/06/30 02:06:31;;;;;;;8.93;7.30;;;14.90;99.90;;;;;;5107988;28;20199;-73
2023/06/30 02:08:57;;;;;;;10.87;7.07;;;14.90;99.90;;;;;;5104234;28;20211;-73
2023/06/30 02:11:23;;;;;;;15.03;6.93;;;14.90;99.90;;;;;;5116943;28;20578;-75
2023/06/30 02:13:48;;;;;;;11.07;7.47;;;14.90;99.90;;;;;;5107778;28;20185;-76
2023/06/30 02:16:14;;;;;;;8.80;6.53;;;14.90;99.90;;;;;;5082974;28;20291;-72
2023/06/30 02:18:39;;;;;;;9.53;6.90;;;14.80;99.90;;;;;;5061861;28;20233;-72
2023/06/30 02:21:06;;;;;;;9.27;6.90;;;14.80;99.90;;;;;;5116250;28;20209;-73
2023/06/30 02:23:32;;;;;;;10.83;7.30;;;14.80;99.90;;;;;;5093849;28;20430;-72
2023/06/30 02:25:58;;;;;;;13.93;7.07;;;14.80;99.90;;;;;;5113562;28;20240;-73
2023/06/30 02:28:24;;;;;;;9.77;7.43;;;14.80;99.90;;;;;;5115954;28;20413;-73
2023/06/30 02:30:55;;;;;;;10.00;6.90;;;14.80;99.90;;;;;;5092394;28;20461;-72
2023/06/30 02:33:21;;;;;;;11.53;6.60;;;14.80;99.90;;;;;;5095548;28;20429;-73
2023/06/30 02:35:46;;;;;;;17.17;9.10;;;14.80;99.90;;;;;;5107310;28;20417;-72
2023/06/30 02:38:13;;;;;;;11.03;7.50;;;14.80;99.90;;;;;;5114174;28;20199;-72
2023/06/30 02:40:38;;;;;;;10.13;7.60;;;14.80;99.90;;;;;;5092095;28;20463;-72
2023/06/30 02:43:04;;;;;;;11.20;7.10;;;14.80;99.90;;;;;;5111739;28;20192;-73
2023/06/30 02:45:30;;;;;;;14.93;8.57;;;14.90;99.90;;;;;;5087855;28;20610;-74
2023/06/30 02:47:55;;;;;;;15.43;9.27;;;14.90;99.90;;;;;;5057435;28;20268;-72
2023/06/30 02:50:29;;;;;;;17.40;11.77;;;15.00;99.90;;;;;;5076831;28;20210;-73
2023/06/30 02:52:56;;;;;;;16.73;11.53;;;15.00;99.90;;;;;;5097713;28;20179;-73
2023/06/30 02:55:22;;;;;;;25.43;11.97;;;15.00;99.90;;;;;;5079391;28;20705;-73
2023/06/30 02:57:47;;;;;;;13.60;9.40;;;14.90;99.90;;;;;;5077540;28;20583;-73
2023/06/30 03:00:14;;;;;;;15.90;9.63;;;14.90;99.90;;;;;;5068382;28;20430;-73
2023/06/30 03:02:39;;;;;;;17.93;10.73;;;14.90;99.90;;;;;;5062848;28;20180;-72
2023/06/30 03:05:08;;;;;;;12.83;8.63;;;14.90;99.90;;;;;;5061825;28;20542;-73
2023/06/30 03:07:34;;;;;;;11.47;7.97;;;14.90;99.90;;;;;;5077634;28;20430;-72
2023/06/30 03:10:00;;;;;;;18.83;9.60;;;14.90;99.90;;;;;;5092340;28;20601;-73
2023/06/30 03:12:26;;;;;;;12.47;7.97;;;14.90;99.90;;;;;;5077729;28;20415;-73
2023/06/30 03:14:54;;;;;;;12.50;7.97;;;14.90;99.90;;;;;;5080089;28;20892;-72
2023/06/30 03:17:19;;;;;;;15.87;9.93;;;14.90;99.90;;;;;;5062638;28;20452;-74
2023/06/30 03:19:45;;;;;;;15.97;10.00;;;14.90;99.90;;;;;;5058776;28;20714;-74
2023/06/30 03:22:11;;;;;;;18.83;11.23;;;14.90;99.90;;;;;;5098586;28;20413;-73
2023/06/30 03:24:37;;;;;;;16.40;10.70;;;14.90;99.90;;;;;;5080069;28;20181;-74
2023/06/30 03:27:03;;;;;;;20.70;13.03;;;14.90;99.90;;;;;;5086137;28;20257;-73
2023/06/30 03:29:30;;;;;;;21.27;11.37;;;14.80;99.90;;;;;;5076110;28;20584;-73
2023/06/30 03:31:56;;;;;;;21.87;12.70;;;14.80;99.90;;;;;;5076032;28;20414;-73
2023/06/30 03:34:22;;;;;;;28.03;14.10;;;14.80;99.90;;;;;;5089820;28;20807;-73
2023/06/30 03:36:49;;;;;;;24.40;13.97;;;14.80;99.90;;;;;;5098806;28;20211;-74
2023/06/30 03:39:15;;;;;;;29.40;16.00;;;14.70;99.90;;;;;;5090204;28;20453;-74
2023/06/30 03:41:41;;;;;;;27.23;16.70;;;14.70;99.90;;;;;;5077899;28;20435;-74
2023/06/30 03:44:07;;;;;;;31.30;15.57;;;14.70;99.90;;;;;;5087346;28;20181;-75
2023/06/30 03:46:34;;;;;;;27.40;16.47;;;14.70;99.90;;;;;;5058416;28;20431;-73
2023/06/30 03:48:59;;;;;;;30.07;15.10;;;14.70;99.90;;;;;;5074758;28;20192;-73
2023/06/30 03:51:25;;;;;;;19.97;12.27;;;14.70;99.90;;;;;;5103097;28;20493;-71
2023/06/30 03:53:52;;;;;;;19.83;12.17;;;14.70;99.90;;;;;;5088203;28;20256;-73
2023/06/30 03:56:20;;;;;;;23.73;13.20;;;14.70;99.90;;;;;;5100133;28;20414;-74
2023/06/30 03:58:46;;;;;;;26.93;13.70;;;14.70;99.90;;;;;;5109033;28;20453;-73
2023/06/30 04:01:12;;;;;;;36.73;18.17;;;14.70;99.90;;;;;;5091838;28;20420;-74
2023/06/30 04:03:38;;;;;;;29.53;14.80;;;14.80;99.90;;;;;;5106888;28;20211;-72
2023/06/30 04:06:03;;;;;;;24.33;13.30;;;14.70;99.90;;;;;;5113551;28;20206;-75
2023/06/30 04:08:29;;;;;;;26.07;11.87;;;14.80;99.90;;;;;;5105967;28;20536;-74
2023/06/30 04:10:55;;;;;;;27.50;15.60;;;14.70;99.90;;;;;;5118625;28;20206;-74
2023/06/30 04:13:20;;;;;;;33.23;16.70;;;14.70;99.90;;;;;;5119279;28;20239;-73
2023/06/30 04:15:46;;;;;;;41.47;17.40;;;14.70;99.90;;;;;;5099571;28;20188;-74
2023/06/30 04:18:11;;;;;;;25.33;13.57;;;14.70;99.90;;;;;;5119469;28;20305;-74
2023/06/30 04:20:37;;;;;;;27.47;14.00;;;14.70;99.90;;;;;;5111064;28;20214;-74
2023/06/30 04:23:03;;;;;;;33.20;15.10;;;14.70;99.90;;;;;;5103556;28;20196;-73
2023/06/30 04:25:29;;;;;;;27.17;15.60;;;14.70;99.90;;;;;;5118511;28;20438;-74
2023/06/30 04:27:54;;;;;;;34.70;18.43;;;14.70;99.90;;;;;;5118457;28;20585;-74
2023/06/30 04:30:20;;;;;;;30.27;16.87;;;14.60;99.90;;;;;;5106762;28;20521;-74
2023/06/30 04:32:46;;;;;;;41.63;20.07;;;14.70;99.90;;;;;;5099960;28;20221;-74
2023/06/30 04:35:12;;;;;;;32.13;16.40;;;14.70;99.90;;;;;;5119002;28;20175;-76
2023/06/30 04:37:40;;;;;;;38.20;17.43;;;14.70;99.90;;;;;;5097712;28;20756;-75
2023/06/30 04:40:09;;;;;;;34.27;18.47;;;14.70;99.90;;;;;;5106636;28;20204;-73
2023/06/30 04:42:36;;;;;;;36.93;17.77;;;14.70;99.90;;;;;;5102524;28;20435;-75
2023/06/30 04:45:02;;;;;;;37.10;17.67;;;14.70;99.90;;;;;;5097218;28;20422;-75
2023/06/30 04:47:28;;;;;;;28.30;16.50;;;14.70;99.90;;;;;;5109077;28;20509;-74
2023/06/30 04:49:54;;;;;;;31.07;17.10;;;14.80;99.90;;;;;;5093352;28;20816;-76
2023/06/30 04:52:20;;;;;;;47.20;20.37;;;14.70;99.90;;;;;;5118282;28;20187;-74
2023/06/30 04:54:45;;;;;;;50.23;19.70;;;14.70;99.90;;;;;;5111151;28;20830;-73
2023/06/30 04:57:11;;;;;;;39.60;17.03;;;14.70;99.90;;;;;;5098415;28;20311;-73
2023/06/30 04:59:37;;;;;;;34.37;16.53;;;14.70;99.90;;;;;;5107808;28;20513;-73
2023/06/30 05:02:03;;;;;;;30.63;16.80;;;14.70;99.90;;;;;;5107811;28;20195;-73
2023/06/30 05:04:30;;;;;;;34.10;18.20;;;14.70;99.90;;;;;;5123535;28;20446;-75
2023/06/30 05:06:56;;;;;;;42.67;17.90;;;14.70;99.90;;;;;;5127000;28;20508;-76
2023/06/30 05:09:22;;;;;;;42.67;18.50;;;14.70;99.90;;;;;;5106514;28;20673;-74
2023/06/30 05:11:48;;;;;;;33.43;17.70;;;14.80;99.90;;;;;;5122967;28;20463;-74
2023/06/30 05:14:14;;;;;;;34.17;18.67;;;14.90;99.90;;;;;;5093192;28;20421;-76
2023/06/30 05:16:39;;;;;;;30.40;16.60;;;14.90;99.90;;;;;;5068638;28;20428;-76
2023/06/30 05:19:06;;;;;;;65.33;23.40;;;15.00;99.90;;;;;;5104299;28;20210;-76
2023/06/30 05:21:32;;;;;;;50.30;20.97;;;15.00;99.90;;;;;;5064205;28;20192;-75
2023/06/30 05:23:57;;;;;;;39.23;18.80;;;15.00;99.90;;;;;;5100097;28;20402;-75
2023/06/30 05:26:23;;;;;;;41.30;20.80;;;15.00;99.90;;;;;;5102424;28;20575;-75
2023/06/30 05:28:48;;;;;;;34.70;17.60;;;14.90;99.90;;;;;;5103374;28;20212;-75
2023/06/30 05:31:14;;;;;;;29.07;15.33;;;14.80;99.90;;;;;;5100036;28;20195;-73
2023/06/30 05:33:40;;;;;;;35.43;18.63;;;14.90;99.90;;;;;;5122074;28;20247;-75
2023/06/30 05:36:05;;;;;;;35.37;18.17;;;14.90;99.90;;;;;;5121524;28;20160;-76
2023/06/30 05:38:31;;;;;;;63.77;24.13;;;15.00;99.90;;;;;;5086143;28;20200;-75
2023/06/30 05:40:58;;;;;;;40.73;17.00;;;15.20;99.90;;;;;;5069400;28;20208;-76
2023/06/30 05:43:24;;;;;;;38.27;18.93;;;15.20;99.90;;;;;;5106452;28;20234;-75
2023/06/30 05:45:50;;;;;;;43.80;19.13;;;15.20;99.90;;;;;;5105608;28;20418;-76
2023/06/30 05:48:16;;;;;;;32.90;17.80;;;15.20;99.90;;;;;;5097817;28;20180;-76
2023/06/30 05:50:41;;;;;;;20.63;13.37;;;15.30;99.90;;;;;;5088623;28;20212;-75
2023/06/30 05:53:07;;;;;;;31.93;14.47;;;15.40;99.90;;;;;;5089290;28;20180;-77
2023/06/30 05:55:33;;;;;;;30.73;15.50;;;15.30;99.90;;;;;;5089395;28;20214;-77
2023/06/30 05:57:58;;;;;;;50.03;18.20;;;15.30;99.90;;;;;;5112507;28;20204;-77
2023/06/30 06:00:25;;;;;;;27.10;16.27;;;15.20;99.90;;;;;;5089688;28;20207;-75
2023/06/30 06:02:50;;;;;;;38.47;17.00;;;15.10;99.90;;;;;;5104999;28;20448;-76
2023/06/30 06:05:17;;;;;;;35.13;16.80;;;15.10;99.90;;;;;;5107323;28;20450;-77
2023/06/30 06:07:43;;;;;;;24.63;14.57;;;15.00;99.90;;;;;;5099552;28;20346;-75
2023/06/30 06:10:09;;;;;;;24.50;12.93;;;14.90;99.90;;;;;;5108715;28;20444;-76
2023/06/30 06:12:38;;;;;;;27.73;12.30;;;14.80;99.90;;;;;;5116246;28;20409;-78
2023/06/30 06:15:04;;;;;;;14.40;10.40;;;14.70;99.90;;;;;;5118031;28;20196;-78
2023/06/30 06:17:30;;;;;;;19.77;10.87;;;14.60;99.90;;;;;;5090642;28;20966;-74
2023/06/30 06:19:57;;;;;;;18.23;10.77;;;14.70;99.90;;;;;;5104807;28;20433;-75
2023/06/30 06:22:22;;;;;;;10.57;8.73;;;14.80;99.90;;;;;;5106369;28;20172;-76
2023/06/30 06:24:48;;;;;;;13.87;10.43;;;14.90;99.90;;;;;;5108773;28;20443;-77
2023/06/30 06:27:13;;;;;;;20.33;10.77;;;15.10;99.90;;;;;;5089863;28;20251;-76
2023/06/30 06:29:39;;;;;;;18.37;9.17;;;15.30;99.90;;;;;;5106066;28;20211;-74
2023/06/30 06:32:05;;;;;;;13.90;9.73;;;15.50;99.90;;;;;;5109684;28;20529;-76
2023/06/30 06:34:31;;;;;;;15.80;8.80;;;15.70;99.90;;;;;;5106674;28;20225;-75
2023/06/30 06:36:57;;;;;;;9.73;8.37;;;15.90;99.90;;;;;;5087974;28;20466;-75
2023/06/30 06:39:22;;;;;;;11.53;8.60;;;16.30;99.90;;;;;;5112294;28;20196;-74
2023/06/30 06:41:48;;;;;;;10.13;6.27;;;16.60;99.90;;;;;;5113384;28;20172;-75
2023/06/30 06:44:16;;;;;;;7.63;6.47;;;16.90;99.90;;;;;;5132674;28;20173;-76
2023/06/30 06:46:43;;;;;;;12.60;7.27;;;17.20;99.90;;;;;;5105478;28;20423;-74
2023/06/30 06:49:08;;;;;;;17.67;7.40;;;17.40;99.90;;;;;;5102398;28;20207;-74
2023/06/30 06:51:34;;;;;;;15.73;7.10;;;17.50;99.90;;;;;;5094203;28;20428;-76
2023/06/30 06:54:01;;;;;;;10.73;6.90;;;17.60;99.90;;;;;;5125107;28;20197;-74
2023/06/30 06:56:26;;;;;;;9.00;5.80;;;17.60;99.90;;;;;;5124113;28;20590;-75
2023/06/30 06:58:53;;;;;;;14.63;6.40;;;17.50;99.90;;;;;;5122358;28;20465;-76
2023/06/30 07:01:19;;;;;;;9.57;5.67;;;17.60;99.90;;;;;;5079395;28;20190;-75
2023/06/30 07:03:44;;;;;;;15.67;6.50;;;17.80;99.90;;;;;;5084110;28;20879;-76
2023/06/30 07:06:10;;;;;;;14.93;5.23;;;18.10;99.90;;;;;;5091669;28;20282;-75
2023/06/30 07:08:36;;;;;;;14.27;6.33;;;18.60;99.90;;;;;;5098551;28;20190;-76
2023/06/30 07:11:03;;;;;;;10.37;6.20;;;19.20;99.90;;;;;;5124660;28;20213;-76
2023/06/30 07:13:29;;;;;;;8.83;6.50;;;19.50;99.90;;;;;;5122603;28;20515;-77
2023/06/30 07:15:55;;;;;;;9.20;6.67;;;19.60;99.90;;;;;;5099382;28;20458;-76
2023/06/30 07:18:21;;;;;;;9.70;7.00;;;19.80;99.90;;;;;;5066504;28;20454;-78
2023/06/30 07:20:47;;;;;;;12.33;5.87;;;19.90;99.90;;;;;;5091094;28;20214;-75
2023/06/30 07:23:14;;;;;;;9.10;6.07;;;20.00;99.90;;;;;;5104111;28;20821;-77
2023/06/30 07:25:39;;;;;;;6.77;5.10;;;20.20;99.90;;;;;;5092740;28;20712;-76
2023/06/30 07:28:05;;;;;;;11.40;5.70;;;20.20;95.40;;;;;;5107441;28;20426;-76
2023/06/30 07:30:31;;;;;;;10.63;6.10;;;20.30;95.20;;;;;;5102354;28;20204;-76
2023/06/30 07:32:56;;;;;;;6.40;5.10;;;20.40;93.90;;;;;;5084604;28;20246;-76
2023/06/30 07:35:22;;;;;;;11.10;5.50;;;20.50;90.30;;;;;;5072830;28;20181;-76
2023/06/30 07:37:49;;;;;;;9.40;5.67;;;20.40;87.00;;;;;;5107646;28;20254;-75
2023/06/30 07:40:16;;;;;;;11.27;5.67;;;20.30;92.20;;;;;;5125976;28;20465;-76
2023/06/30 07:42:44;;;;;;;7.50;5.50;;;20.20;86.00;;;;;;5125005;28;20406;-76
2023/06/30 07:45:11;;;;;;;9.17;6.03;;;20.10;91.30;;;;;;5092245;28;20494;-76
2023/06/30 07:47:39;;;;;;;11.53;5.10;;;19.90;90.20;;;;;;5071606;28;20413;-75
2023/06/30 07:50:09;;;;;;;10.73;5.27;;;19.80;93.20;;;;;;5107675;28;20465;-77
2023/06/30 07:52:47;;;;;;;8.53;5.30;;;19.70;92.10;;;;;;5094551;28;20405;-76
2023/06/30 07:55:15;;;;;;;8.63;5.30;;;19.70;92.80;;;;;;5110393;28;20474;-76
2023/06/30 07:57:42;;;;;;;15.17;6.07;;;19.60;88.10;;;;;;5071536;28;20458;-79
2023/06/30 08:00:10;;;;;;;19.57;5.70;;;19.60;89.60;;;;;;5072720;28;20504;-75
2023/06/30 08:02:39;;;;;;;8.67;5.40;;;19.60;86.30;;;;;;5086674;28;20392;-74
2023/06/30 08:05:05;;;;;;;6.30;4.33;;;19.60;85.90;;;;;;5052754;28;20451;-76
2023/06/30 08:07:31;;;;;;;5.80;3.73;;;19.50;87.20;;;;;;5112466;28;20434;-75
2023/06/30 08:09:56;;;;;;;5.50;4.30;;;19.50;86.60;;;;;;5106944;28;20478;-77
2023/06/30 08:12:22;;;;;;;7.10;3.77;;;19.40;83.20;;;;;;5105467;28;20175;-77
2023/06/30 08:14:48;;;;;;;12.00;4.97;;;19.40;84.10;;;;;;5068702;28;20221;-75
2023/06/30 08:17:15;;;;;;;4.87;3.50;;;19.40;80.80;;;;;;5099606;28;20208;-77
2023/06/30 08:19:41;;;;;;;7.30;3.40;;;19.50;79.00;;;;;;5086548;28;20434;-76
2023/06/30 08:22:09;;;;;;;7.07;3.40;;;19.40;73.50;;;;;;5069647;28;20414;-75
2023/06/30 08:24:34;;;;;;;7.53;3.40;;;19.50;73.80;;;;;;5101862;28;20421;-79
2023/06/30 08:27:00;;;;;;;7.17;3.20;;;19.50;69.50;;;;;;5108401;28;20414;-78
2023/06/30 08:29:25;;;;;;;8.03;2.93;;;19.50;69.20;;;;;;5093766;28;20211;-76
2023/06/30 08:31:52;;;;;;;3.90;3.20;;;19.60;68.00;;;;;;5070573;28;20192;-76
2023/06/30 08:34:17;;;;;;;4.73;2.80;;;19.60;66.20;;;;;;5098036;28;20183;-77
2023/06/30 08:36:43;;;;;;;11.37;3.33;;;19.70;65.90;;;;;;5110780;28;20414;-79
2023/06/30 08:39:08;;;;;;;5.53;2.67;;;19.70;65.90;;;;;;5092749;28;20543;-77
2023/06/30 08:41:37;;;;;;;3.23;2.17;;;19.70;64.50;;;;;;5120900;28;20180;-76
2023/06/30 08:44:03;;;;;;;3.63;1.80;;;19.60;63.40;;;;;;5107659;28;20194;-77
2023/06/30 08:46:29;;;;;;;4.50;2.30;;;19.50;63.90;;;;;;5118084;28;20482;-76
2023/06/30 08:48:55;;;;;;;5.50;2.90;;;19.40;64.20;;;;;;5126334;28;20790;-75
2023/06/30 08:51:22;;;;;;;4.83;2.70;;;19.50;62.40;;;;;;5108003;28;20183;-75
2023/06/30 08:53:49;;;;;;;4.67;2.53;;;19.40;61.70;;;;;;5122294;28;20411;-76
2023/06/30 08:56:16;;;;;;;6.27;2.50;;;19.40;62.20;;;;;;5107167;28;20409;-79
2023/06/30 08:58:41;;;;;;;5.13;2.80;;;19.50;59.50;;;;;;5106928;28;20530;-76
2023/06/30 09:01:08;;;;;;;3.87;2.27;;;19.40;60.60;;;;;;5074727;28;20431;-75
2023/06/30 09:03:35;;;;;;;5.40;2.60;;;19.40;61.20;;;;;;5069640;28;20209;-75
2023/06/30 09:06:01;;;;;;;4.07;2.33;;;19.40;61.40;;;;;;5067234;28;20861;-76
2023/06/30 09:08:39;;;;;;;5.33;3.00;;;19.40;60.80;;;;;;5084692;28;20447;-76
2023/06/30 09:11:07;;;;;;;7.73;2.63;;;19.40;59.20;;;;;;5088577;28;20467;-75
2023/06/30 09:13:37;;;;;;;3.80;2.23;;;19.50;59.10;;;;;;5098581;28;20433;-77
2023/06/30 09:16:06;;;;;;;2.90;2.20;;;19.60;58.40;;;;;;5078331;28;20430;-76
2023/06/30 09:18:33;;;;;;;3.90;2.00;;;19.60;58.60;;;;;;5092872;28;20480;-75
2023/06/30 09:20:59;;;;;;;5.20;2.50;;;19.70;58.70;;;;;;5110294;28;20425;-77
2023/06/30 09:23:27;;;;;;;4.63;1.97;;;19.70;57.70;;;;;;5090883;28;20418;-76
2023/06/30 09:25:52;;;;;;;5.03;1.43;;;19.70;54.90;;;;;;5112667;28;20462;-75
2023/06/30 09:28:18;;;;;;;7.00;1.50;;;19.70;53.70;;;;;;5091668;28;20496;-78
2023/06/30 09:30:46;;;;;;;4.93;2.17;;;19.70;53.40;;;;;;5113095;28;20212;-76
2023/06/30 09:33:17;;;;;;;4.37;2.00;;;19.70;54.20;;;;;;5086586;28;20180;-77
2023/06/30 09:35:44;;;;;;;4.27;2.23;;;19.80;54.90;;;;;;5107179;28;20399;-78
2023/06/30 09:38:17;;;;;;;3.30;1.73;;;19.80;55.00;;;;;;5086913;28;20438;-75
2023/06/30 09:40:47;;;;;;;3.20;1.60;;;19.90;55.60;;;;;;5107919;28;20434;-79
2023/06/30 09:43:18;;;;;;;5.73;2.00;;;20.00;54.10;;;;;;5089699;28;20399;-76
2023/06/30 09:45:46;;;;;;;4.87;1.53;;;20.00;53.60;;;;;;5089860;28;20483;-78
2023/06/30 09:48:12;;;;;;;3.10;1.47;;;20.10;52.70;;;;;;5071055;28;20756;-76
2023/06/30 09:50:38;;;;;;;3.37;1.90;;;20.00;53.80;;;;;;5087179;28;20491;-76
2023/06/30 09:53:04;;;;;;;4.77;1.63;;;20.10;54.30;;;;;;5127654;28;20409;-76
2023/06/30 09:55:29;;;;;;;5.40;2.10;;;20.20;54.40;;;;;;5072834;28;20180;-79
2023/06/30 09:57:55;;;;;;;5.10;1.43;;;20.30;53.50;;;;;;5089839;28;20197;-77
2023/06/30 10:00:22;;;;;;;2.60;1.20;;;20.40;52.30;;;;;;5088600;28;20208;-78
2023/06/30 10:03:08;;;;;;;4.97;2.00;;;20.40;51.20;;;;;;5114725;28;20425;-78
2023/06/30 10:05:35;;;;;;;2.03;1.50;;;20.40;51.60;;;;;;5109729;28;20437;-78
2023/06/30 10:08:01;;;;;;;7.53;2.40;;;20.40;52.00;;;;;;5094106;28;20861;-76
2023/06/30 10:10:31;;;;;;;3.30;1.60;;;20.50;50.90;;;;;;5074174;28;20431;-77
2023/06/30 10:12:58;;;;;;;4.03;2.20;;;20.60;50.80;;;;;;5072099;28;20533;-80
2023/06/30 10:15:24;;;;;;;5.30;1.90;;;20.70;49.40;;;;;;5071739;28;20426;-76
2023/06/30 10:17:56;;;;;;;5.63;2.03;;;20.80;49.70;;;;;;5107492;28;20751;-76
2023/06/30 10:20:22;;;;;;;3.90;1.50;;;20.80;49.10;;;;;;5116631;28;20508;-77
2023/06/30 10:22:48;;;;;;;7.77;1.90;;;21.00;49.40;;;;;;5130224;28;20711;-77
2023/06/30 10:25:17;;;;;;;4.77;1.87;;;21.00;49.40;;;;;;5129174;28;20172;-77
2023/06/30 10:27:46;;;;;;;4.00;2.37;;;21.00;49.10;;;;;;5097040;28;20853;-78
2023/06/30 10:30:12;;;;;;;5.57;1.70;;;21.00;47.80;;;;;;5085758;28;20454;-79
2023/06/30 10:32:39;;;;;;;2.80;1.30;;;21.10;47.60;;;;;;5102341;28;20402;-75
2023/06/30 10:35:06;;;;;;;2.47;1.60;;;21.20;47.50;;;;;;5069703;28;20439;-77
2023/06/30 10:37:33;;;;;;;7.40;3.37;;;21.40;47.70;;;;;;5103662;28;20466;-76
2023/06/30 10:39:58;;;;;;;3.30;1.47;;;21.50;47.50;;;;;;5127432;28;20437;-74
2023/06/30 10:42:27;;;;;;;3.50;1.23;;;21.60;45.50;;;;;;5095278;28;20403;-77
2023/06/30 10:44:58;;;;;;;2.00;1.33;;;21.60;45.10;;;;;;5084726;28;20168;-78
2023/06/30 10:47:27;;;;;;;3.27;1.80;;;21.60;45.30;;;;;;5092184;28;20427;-76
2023/06/30 10:49:54;;;;;;;3.90;2.00;;;21.50;45.90;;;;;;5073074;28;20435;-77
2023/06/30 10:52:27;;;;;;;4.30;1.80;;;21.60;46.10;;;;;;5089356;28;20435;-79
2023/06/30 10:54:53;;;;;;;4.63;1.67;;;21.70;46.50;;;;;;5070849;28;20433;-78
2023/06/30 10:57:26;;;;;;;6.80;1.70;;;21.80;46.40;;;;;;5090876;28;20843;-77
2023/06/30 11:00:15;;;;;;;1.93;1.50;;;22.10;45.90;;;;;;5081000;28;20267;-75
2023/06/30 11:02:57;;;;;;;6.27;1.60;;;22.10;45.30;;;;;;5053203;28;20419;-76
2023/06/30 11:05:28;;;;;;;4.47;1.70;;;22.30;44.50;;;;;;5114561;28;20451;-77
2023/06/30 11:08:03;;;;;;;5.43;1.63;;;22.30;44.50;;;;;;5127800;28;20456;-78
2023/06/30 11:10:31;;;;;;;3.00;1.87;;;22.20;43.10;;;;;;5111774;28;20498;-76
2023/06/30 11:12:58;;;;;;;2.60;1.40;;;22.20;43.80;;;;;;5103775;28;20425;-77
2023/06/30 11:15:25;;;;;;;4.90;1.70;;;22.20;44.20;;;;;;5092831;28;20438;-78
2023/06/30 11:17:51;;;;;;;3.20;1.60;;;22.20;44.40;;;;;;5054493;28;20509;-78
2023/06/30 11:20:18;;;;;;;9.00;2.00;;;22.20;44.70;;;;;;5052125;28;20439;-76
2023/06/30 11:23:01;;;;;;;2.67;1.27;;;22.30;45.40;;;;;;5087585;28;20499;-77
2023/06/30 11:25:28;;;;;;;3.07;1.87;;;22.60;45.00;;;;;;5073194;28;20410;-78
2023/06/30 11:27:55;;;;;;;4.10;1.73;;;22.80;44.00;;;;;;5129582;28;20409;-76
2023/06/30 11:30:22;;;;;;;4.57;1.83;;;22.90;43.50;;;;;;5103828;28;20454;-75
2023/06/30 11:32:48;;;;;;;6.67;3.10;;;22.90;43.00;;;;;;5123060;28;20409;-78
2023/06/30 11:35:16;;;;;;;2.00;1.23;;;22.70;43.40;;;;;;5132119;28;20406;-77
2023/06/30 11:37:52;;;;;;;3.30;1.40;;;22.80;43.00;;;;;;5102107;28;20219;-75
2023/06/30 11:40:19;;;;;;;2.80;1.57;;;22.90;42.60;;;;;;5111847;28;20430;-78
2023/06/30 11:42:45;;;;;;;4.40;1.83;;;22.90;42.70;;;;;;5095648;28;20399;-80
2023/06/30 11:45:16;;;;;;;2.10;1.43;;;23.00;42.60;;;;;;5074053;28;20417;-78
2023/06/30 11:47:46;;;;;;;4.67;1.80;;;23.00;42.80;;;;;;5094923;28;20380;-78
2023/06/30 11:50:12;;;;;;;2.87;1.50;;;23.00;42.70;;;;;;5085670;28;20439;-76
2023/06/30 11:52:39;;;;;;;3.17;1.63;;;23.10;42.60;;;;;;5098647;28;20404;-78
2023/06/30 11:55:06;;;;;;;4.80;1.80;;;23.00;42.50;;;;;;5129183;28;20172;-78
2023/06/30 11:57:36;;;;;;;3.17;2.10;;;23.10;43.00;;;;;;5098098;28;20767;-78
2023/06/30 12:00:11;;;;;;;2.00;1.30;;;23.30;43.30;;;;;;5098719;28;20443;-79
2023/06/30 12:02:56;;;;;;;3.20;1.60;;;23.40;42.80;;;;;;5076558;28;20391;-78
2023/06/30 12:05:23;;;;;;;4.00;1.63;;;23.70;42.10;;;;;;5076555;28;20431;-79
2023/06/30 12:07:51;;;;;;;5.90;1.40;;;23.90;42.00;;;;;;5102356;28;20454;-78
2023/06/30 12:10:17;;;;;;;2.90;1.57;;;24.00;41.50;;;;;;5083818;28;20459;-78
2023/06/30 12:12:43;;;;;;;3.63;1.67;;;24.10;40.80;;;;;;5113677;28;20406;-76
2023/06/30 12:15:11;;;;;;;2.57;1.60;;;24.00;40.90;;;;;;5099728;28;20588;-78
2023/06/30 12:17:39;;;;;;;2.43;1.60;;;23.90;41.40;;;;;;5070859;28;20268;-77
2023/06/30 12:20:07;;;;;;;5.40;1.60;;;23.70;42.00;;;;;;5073627;28;20686;-78
2023/06/30 12:22:41;;;;;;;3.03;1.50;;;23.60;41.70;;;;;;5073995;28;20386;-76
2023/06/30 12:25:11;;;;;;;3.17;1.20;;;23.30;42.30;;;;;;5089934;28;20438;-78
2023/06/30 12:27:43;;;;;;;3.40;1.60;;;23.10;42.20;;;;;;5073166;28;20423;-78
2023/06/30 12:30:19;;;;;;;4.10;2.00;;;22.90;42.70;;;;;;5074907;28;20724;-76
2023/06/30 12:32:46;;;;;;;5.87;1.97;;;22.50;43.70;;;;;;5091056;28;20411;-78
2023/06/30 12:35:12;;;;;;;4.33;2.17;;;22.40;44.00;;;;;;5060928;28;20423;-79
2023/06/30 12:37:39;;;;;;;2.07;1.77;;;22.30;44.50;;;;;;5056283;28;20463;-77